Braytown, Indiana
Current Conditions -  °F | °C
As of 7:52 AM on Tuesday 21 Oct 2014 (Local Time) from KCVG Reporting Station
Scattered Clouds Scattered Clouds  
Wind Chill: 41°   Ceiling: Unl
Heat Index: 45°   Visibility: 7mi
Dew Point: 42°   Wind: 8mph
Humidity: 90%   Direction: 280°W
Pressure: 29.99"   Gusts: NA
Location:  38.7865°N, 85.1073°W
Report Text: KCVG 211152Z 28007KT 7SM SCT055 07/06 A2999 RMK AO2 SLP151 T00720056 10122 20072 53016
Loading
Personal Weather Stations






























Interactive Weather Map
Tropical Storm Tracking
New forecast layout! Learn more

10-Day Weather Forecast

Advertisements
Track Severe Weather on mobile